createdAt,value
2022-09-26T02:06:31.040Z,30.41
2022-09-26T02:09:56.886Z,30.25
2022-09-26T02:13:06.400Z,30.05
2022-09-26T02:16:35.380Z,29.91
2022-09-26T02:20:04.943Z,29.77
2022-09-26T02:23:21.386Z,29.62
2022-09-26T02:26:48.233Z,29.50
2022-09-26T02:30:07.664Z,29.37
2022-09-26T02:33:34.212Z,29.22
2022-09-26T02:37:01.113Z,29.04
2022-09-26T02:40:28.090Z,28.88
2022-09-26T02:44:12.452Z,28.70
2022-09-26T03:59:37.628Z,26.35
2022-09-26T04:03:04.868Z,26.28
2022-09-26T04:06:31.311Z,26.20
2022-09-26T04:10:01.435Z,26.10
2022-09-26T04:22:15.144Z,25.81
2022-09-26T05:39:08.768Z,23.63
2022-09-26T07:12:14.790Z,21.65
2022-09-26T07:15:43.940Z,21.56
2022-09-26T07:19:11.321Z,21.45
2022-09-26T07:22:26.395Z,21.33
2022-09-26T07:25:53.286Z,21.25
2022-09-26T07:29:21.077Z,21.18
2022-09-26T07:32:47.546Z,21.13
2022-09-26T07:35:33.402Z,21.10
2022-09-26T07:39:00.770Z,21.06
2022-09-26T07:42:27.527Z,21.02
2022-09-26T07:45:52.094Z,20.96
2022-09-26T07:49:17.682Z,20.91
2022-09-26T07:52:53.309Z,20.87
2022-09-26T07:56:21.793Z,20.84
2022-09-26T07:59:38.984Z,20.80
2022-09-26T08:03:08.035Z,20.76
2022-09-26T08:06:38.560Z,20.73
2022-09-26T08:10:05.680Z,20.68
2022-09-26T08:13:44.170Z,20.63
2022-09-26T08:16:56.807Z,20.60
2022-09-26T08:20:26.325Z,20.55
2022-09-26T08:23:56.838Z,20.48
2022-09-26T08:27:05.117Z,20.45
2022-09-26T08:30:26.928Z,20.40
2022-09-26T08:33:56.910Z,20.36
2022-09-26T08:37:23.805Z,20.31
2022-09-26T08:40:57.961Z,20.25
2022-09-26T08:44:22.217Z,20.18
2022-09-26T08:47:51.297Z,20.14
2022-09-26T08:51:29.179Z,20.10
2022-09-26T08:54:37.447Z,20.04
2022-09-26T08:58:05.526Z,19.98
2022-09-26T09:01:27.457Z,19.94
2022-09-26T09:05:07.518Z,19.91
2022-09-26T09:08:40.522Z,19.88
2022-09-26T09:12:13.412Z,19.86
2022-09-26T09:16:01.640Z,19.82
2022-09-26T09:19:35.677Z,19.75
2022-09-26T09:23:10.430Z,19.66
2022-09-26T09:30:46.948Z,19.55
2022-09-26T09:34:11.320Z,19.48
2022-09-26T09:37:31.879Z,19.42
2022-09-26T09:41:05.760Z,19.38
2022-09-26T09:44:31.888Z,19.31
2022-09-26T09:47:58.710Z,19.26
2022-09-26T09:51:40.680Z,19.18
2022-09-26T09:55:10.804Z,19.09
2022-09-26T09:58:55.128Z,19.01
2022-09-26T10:02:30.572Z,18.93
2022-09-26T10:05:58.726Z,18.87
2022-09-26T10:09:39.857Z,18.80
2022-09-26T10:13:21.386Z,18.71
2022-09-26T10:16:53.355Z,18.63
2022-09-26T10:20:18.013Z,18.55
2022-09-26T10:23:45.043Z,18.49
2022-09-26T10:27:06.160Z,18.42
2022-09-26T10:30:39.088Z,18.36
2022-09-26T10:34:10.172Z,18.32
2022-09-26T10:37:38.765Z,18.26
2022-09-26T10:41:08.962Z,18.21
2022-09-26T10:44:36.161Z,18.17
2022-09-26T10:48:08.632Z,18.14
2022-09-26T10:51:26.972Z,18.11
2022-09-26T10:54:44.773Z,18.07
2022-09-26T10:58:15.370Z,18.00
2022-09-26T11:01:47.410Z,17.94
2022-09-26T11:05:12.344Z,17.84
2022-09-26T11:08:42.253Z,17.74
2022-09-26T11:12:11.747Z,17.68
2022-09-26T11:15:23.501Z,17.63
2022-09-26T11:18:30.853Z,17.57
2022-09-26T11:21:46.547Z,17.55
2022-09-26T11:25:27.412Z,17.49
2022-09-26T11:29:03.091Z,17.43
2022-09-26T11:32:19.732Z,17.38
2022-09-26T11:35:40.590Z,17.32
2022-09-26T11:39:17.688Z,17.27
2022-09-26T11:42:48.193Z,17.23
2022-09-26T11:46:27.823Z,17.17
2022-09-26T11:49:57.662Z,17.12
2022-09-26T11:53:20.360Z,17.08
2022-09-26T11:57:04.160Z,17.04
2022-09-26T12:00:29.267Z,17.02
2022-09-26T12:04:11.275Z,16.99
2022-09-26T12:08:01.486Z,16.95
2022-09-26T12:11:35.697Z,16.90
2022-09-26T12:14:42.084Z,16.88
2022-09-26T12:18:14.692Z,16.85
2022-09-26T12:21:47.385Z,16.84
2022-09-26T12:25:23.484Z,16.82
2022-09-26T12:28:59.089Z,16.80
2022-09-26T12:32:27.000Z,16.79
2022-09-26T12:35:38.120Z,16.78
2022-09-26T12:39:09.182Z,16.74
2022-09-26T12:42:50.369Z,16.72
2022-09-26T12:46:26.445Z,16.68
2022-09-26T12:49:51.854Z,16.65
2022-09-26T12:53:30.644Z,16.60
2022-09-26T12:56:50.250Z,16.55
2022-09-26T13:00:20.661Z,16.51
2022-09-26T13:04:03.405Z,16.44
2022-09-26T13:07:19.280Z,16.39
2022-09-26T13:10:49.603Z,16.35
2022-09-26T13:14:40.517Z,16.30
2022-09-26T13:18:02.465Z,16.24
2022-09-26T13:21:29.157Z,16.18
2022-09-26T13:24:30.687Z,16.12
2022-09-26T13:27:57.515Z,16.09
2022-09-26T13:31:19.098Z,16.06
2022-09-26T13:34:53.446Z,16.02
2022-09-26T13:37:48.948Z,15.99
2022-09-26T13:40:55.755Z,15.97
2022-09-26T13:44:14.484Z,15.94
2022-09-26T13:47:22.937Z,15.92
2022-09-26T13:51:05.291Z,15.90
2022-09-26T13:54:31.534Z,15.88
2022-09-26T13:58:09.944Z,15.87
2022-09-26T14:01:27.724Z,15.86
2022-09-26T14:04:58.495Z,15.85
2022-09-26T14:08:24.647Z,15.84
2022-09-26T14:12:03.005Z,15.81
2022-09-26T14:15:29.885Z,15.79
2022-09-26T14:19:21.820Z,15.80
2022-09-26T14:22:51.895Z,15.83
2022-09-26T14:26:17.118Z,15.91
2022-09-26T14:29:25.783Z,16.35
2022-09-26T14:32:59.598Z,17.40
2022-09-26T14:36:35.397Z,18.50
2022-09-26T14:39:48.022Z,19.56
2022-09-26T14:43:26.528Z,20.37
2022-09-26T14:47:05.420Z,21.21
2022-09-26T14:50:35.740Z,21.92
2022-09-26T14:54:05.602Z,22.62
2022-09-26T14:57:57.811Z,23.23
2022-09-26T15:01:36.434Z,23.70
2022-09-26T15:04:58.794Z,24.21
2022-09-26T15:08:18.761Z,24.52
2022-09-26T15:11:25.489Z,24.84
2022-09-26T15:14:41.777Z,25.14
2022-09-26T15:17:57.008Z,25.33
2022-09-26T15:21:13.544Z,25.47
2022-09-26T18:22:35.674Z,32.48
2022-09-26T18:25:39.871Z,32.54
2022-09-26T18:28:58.366Z,32.73
2022-09-26T18:32:17.593Z,32.93
2022-09-26T18:35:34.378Z,32.99
2022-09-26T18:38:53.148Z,33.09
2022-09-26T18:42:18.190Z,33.20
2022-09-26T18:45:25.790Z,33.34
2022-09-26T18:48:46.885Z,33.45
2022-09-26T18:52:11.946Z,33.57
2022-09-26T18:55:35.814Z,33.65
2022-09-26T18:59:00.874Z,33.64
2022-09-26T19:02:15.197Z,33.69
2022-09-26T19:05:19.860Z,33.82
2022-09-26T19:08:37.735Z,33.93
2022-09-26T19:15:06.400Z,34.13
2022-09-26T19:18:31.599Z,34.15
2022-09-26T19:21:30.053Z,34.19
2022-09-26T19:24:21.065Z,34.22
2022-09-26T19:27:46.557Z,34.15
2022-09-26T19:31:17.758Z,34.16
2022-09-26T19:34:42.832Z,34.22
2022-09-26T19:37:47.568Z,34.32
2022-09-26T19:41:22.888Z,34.43
2022-09-26T19:43:51.749Z,34.48
2022-09-26T19:46:00.419Z,34.58
2022-09-26T20:00:48.430Z,35.01
2022-09-26T20:04:11.318Z,35.04
2022-09-26T20:07:28.122Z,35.10
2022-09-26T20:11:01.514Z,35.27
2022-09-26T20:14:18.735Z,35.45
2022-09-26T20:22:50.886Z,35.32
2022-09-26T20:26:19.117Z,35.35
2022-09-26T20:55:56.801Z,35.17
2022-09-26T20:59:16.194Z,35.19
2022-09-26T21:02:50.326Z,35.26
2022-09-26T21:17:55.809Z,35.26
2022-09-26T21:21:28.017Z,35.27
2022-09-26T21:25:02.055Z,35.35
2022-09-26T21:34:11.068Z,35.50
2022-09-26T21:52:37.478Z,35.48
2022-09-26T22:10:53.470Z,35.26
2022-09-26T22:13:58.609Z,35.31
2022-09-26T22:17:21.483Z,35.27
2022-09-26T22:20:37.121Z,35.17
2022-09-26T22:24:02.910Z,35.11
2022-09-26T22:27:11.383Z,35.15
2022-09-26T22:30:27.828Z,35.21
2022-09-26T22:33:53.071Z,35.22
2022-09-26T22:39:42.969Z,35.20
2022-09-26T22:46:17.639Z,35.31
2022-09-26T22:49:32.803Z,35.32
2022-09-26T22:52:48.142Z,35.41
2022-09-26T22:55:58.325Z,35.49
2022-09-26T22:59:23.774Z,35.44
2022-09-26T23:02:22.294Z,35.39
2022-09-26T23:05:50.041Z,35.40
2022-09-26T23:09:05.716Z,35.40
2022-09-26T23:12:10.312Z,35.44
2022-09-26T23:15:25.693Z,35.39
2022-09-26T23:18:50.813Z,35.29
2022-09-26T23:22:06.730Z,35.29
2022-09-26T23:25:06.250Z,35.32
2022-09-26T23:28:24.678Z,35.35
2022-09-26T23:31:50.314Z,35.33
2022-09-26T23:35:05.457Z,35.26
2022-09-26T23:38:30.601Z,35.18
2022-09-26T23:41:55.794Z,35.10
2022-09-26T23:45:20.961Z,35.05
2022-09-26T23:48:35.271Z,35.02
2022-09-26T23:51:50.631Z,34.98
2022-09-26T23:55:15.653Z,34.93
2022-09-26T23:58:40.876Z,34.88
